sensor_id;sensor_type;location;lat;lon;timestamp;noise_LAeq;noise_LA_min;noise_LA_max;noise_LA01;noise_LA95
66461;Laerm;56838;52.506;4.762;2022-10-16T00:00:07;40.53;38.85;50.98;;
66461;Laerm;56838;52.506;4.762;2022-10-16T00:00:18;39.83;37.76;41.07;;
66461;Laerm;56838;52.506;4.762;2022-10-16T00:00:28;40.12;38.90;41.82;;
66461;Laerm;56838;52.506;4.762;2022-10-16T00:00:39;40.29;38.83;41.96;;
66461;Laerm;56838;52.506;4.762;2022-10-16T00:00:50;40.67;39.32;42.10;;
66461;Laerm;56838;52.506;4.762;2022-10-16T00:01:07;40.89;39.24;42.34;;
66461;Laerm;56838;52.506;4.762;2022-10-16T00:01:20;40.75;39.16;43.88;;
66461;Laerm;56838;52.506;4.762;2022-10-16T00:01:31;41.74;40.28;43.39;;
66461;Laerm;56838;52.506;4.762;2022-10-16T00:01:41;41.10;39.78;42.24;;
66461;Laerm;56838;52.506;4.762;2022-10-16T00:01:52;42.58;40.08;46.13;;
66461;Laerm;56838;52.506;4.762;2022-10-16T00:02:02;47.65;42.82;52.17;;
66461;Laerm;56838;52.506;4.762;2022-10-16T00:02:12;50.25;43.74;58.05;;
66461;Laerm;56838;52.506;4.762;2022-10-16T00:02:23;52.23;46.90;57.89;;
66461;Laerm;56838;52.506;4.762;2022-10-16T00:02:33;50.54;43.58;59.14;;
66461;Laerm;56838;52.506;4.762;2022-10-16T00:02:43;49.46;43.52;53.71;;
66461;Laerm;56838;52.506;4.762;2022-10-16T00:02:54;50.08;45.01;55.37;;
66461;Laerm;56838;52.506;4.762;2022-10-16T00:03:04;43.82;41.49;47.12;;
66461;Laerm;56838;52.506;4.762;2022-10-16T00:03:15;42.92;40.31;47.88;;
66461;Laerm;56838;52.506;4.762;2022-10-16T00:03:25;40.95;39.23;42.83;;
66461;Laerm;56838;52.506;4.762;2022-10-16T00:03:35;42.32;39.68;45.09;;
66461;Laerm;56838;52.506;4.762;2022-10-16T00:03:46;43.01;41.50;44.25;;
66461;Laerm;56838;52.506;4.762;2022-10-16T00:03:57;42.22;41.01;44.19;;
66461;Laerm;56838;52.506;4.762;2022-10-16T00:04:08;42.33;40.32;43.87;;
66461;Laerm;56838;52.506;4.762;2022-10-16T00:04:20;42.16;41.05;43.40;;
66461;Laerm;56838;52.506;4.762;2022-10-16T00:04:30;44.66;41.81;47.52;;
66461;Laerm;56838;52.506;4.762;2022-10-16T00:04:40;42.36;40.11;46.53;;
66461;Laerm;56838;52.506;4.762;2022-10-16T00:04:51;42.21;40.47;44.38;;
66461;Laerm;56838;52.506;4.762;2022-10-16T00:05:01;45.50;40.90;53.07;;
66461;Laerm;56838;52.506;4.762;2022-10-16T00:05:11;48.41;42.42;55.01;;
66461;Laerm;56838;52.506;4.762;2022-10-16T00:05:22;53.00;45.44;60.94;;
66461;Laerm;56838;52.506;4.762;2022-10-16T00:05:32;51.83;43.37;58.91;;
66461;Laerm;56838;52.506;4.762;2022-10-16T00:05:43;45.80;41.24;50.82;;
66461;Laerm;56838;52.506;4.762;2022-10-16T00:05:54;45.86;42.86;52.35;;
66461;Laerm;56838;52.506;4.762;2022-10-16T00:06:09;42.99;40.08;51.83;;
66461;Laerm;56838;52.506;4.762;2022-10-16T00:06:20;41.67;39.71;43.26;;
66461;Laerm;56838;52.506;4.762;2022-10-16T00:06:31;41.10;39.64;43.42;;
66461;Laerm;56838;52.506;4.762;2022-10-16T00:06:42;41.22;39.67;42.80;;
66461;Laerm;56838;52.506;4.762;2022-10-16T00:06:52;41.51;40.00;42.82;;
66461;Laerm;56838;52.506;4.762;2022-10-16T00:07:03;40.68;39.33;42.54;;
66461;Laerm;56838;52.506;4.762;2022-10-16T00:07:13;41.75;40.19;43.08;;
66461;Laerm;56838;52.506;4.762;2022-10-16T00:07:23;41.43;39.80;43.35;;
66461;Laerm;56838;52.506;4.762;2022-10-16T00:07:34;40.85;39.18;42.69;;
66461;Laerm;56838;52.506;4.762;2022-10-16T00:07:44;40.48;38.99;41.82;;
66461;Laerm;56838;52.506;4.762;2022-10-16T00:07:54;40.64;39.14;42.39;;
66461;Laerm;56838;52.506;4.762;2022-10-16T00:08:05;40.46;38.94;41.69;;
66461;Laerm;56838;52.506;4.762;2022-10-16T00:08:15;40.84;39.45;42.81;;
66461;Laerm;56838;52.506;4.762;2022-10-16T00:08:26;41.07;39.33;42.71;;
66461;Laerm;56838;52.506;4.762;2022-10-16T00:08:36;41.42;39.76;43.13;;
66461;Laerm;56838;52.506;4.762;2022-10-16T00:08:47;40.98;39.43;42.77;;
66461;Laerm;56838;52.506;4.762;2022-10-16T00:08:57;41.00;38.75;42.78;;
66461;Laerm;56838;52.506;4.762;2022-10-16T00:09:08;39.47;37.86;40.72;;
66461;Laerm;56838;52.506;4.762;2022-10-16T00:09:18;40.76;38.78;41.88;;
66461;Laerm;56838;52.506;4.762;2022-10-16T00:09:29;40.79;39.25;42.33;;
66461;Laerm;56838;52.506;4.762;2022-10-16T00:09:39;40.07;38.54;41.78;;
66461;Laerm;56838;52.506;4.762;2022-10-16T00:09:50;39.48;38.18;41.11;;
66461;Laerm;56838;52.506;4.762;2022-10-16T00:10:00;39.64;38.04;41.34;;
66461;Laerm;56838;52.506;4.762;2022-10-16T00:10:10;39.68;38.17;41.10;;
66461;Laerm;56838;52.506;4.762;2022-10-16T00:10:21;39.59;37.91;42.02;;
66461;Laerm;56838;52.506;4.762;2022-10-16T00:10:32;39.55;37.97;41.09;;
66461;Laerm;56838;52.506;4.762;2022-10-16T00:10:42;43.41;39.60;50.05;;
66461;Laerm;56838;52.506;4.762;2022-10-16T00:10:52;42.88;40.59;45.78;;
66461;Laerm;56838;52.506;4.762;2022-10-16T00:11:04;43.61;39.73;46.57;;
66461;Laerm;56838;52.506;4.762;2022-10-16T00:11:17;45.34;39.94;50.95;;
66461;Laerm;56838;52.506;4.762;2022-10-16T00:11:30;52.48;44.68;61.83;;
66461;Laerm;56838;52.506;4.762;2022-10-16T00:11:43;47.62;42.24;52.48;;
66461;Laerm;56838;52.506;4.762;2022-10-16T00:11:53;47.44;40.83;53.41;;
66461;Laerm;56838;52.506;4.762;2022-10-16T00:12:05;43.84;39.91;48.85;;
66461;Laerm;56838;52.506;4.762;2022-10-16T00:12:17;41.79;39.30;45.05;;
66461;Laerm;56838;52.506;4.762;2022-10-16T00:12:27;39.59;37.98;41.72;;
66461;Laerm;56838;52.506;4.762;2022-10-16T00:12:37;38.79;36.84;40.97;;
66461;Laerm;56838;52.506;4.762;2022-10-16T00:12:48;39.01;37.30;40.10;;
66461;Laerm;56838;52.506;4.762;2022-10-16T00:12:59;39.10;37.59;40.47;;
66461;Laerm;56838;52.506;4.762;2022-10-16T00:13:09;40.35;38.65;43.09;;
66461;Laerm;56838;52.506;4.762;2022-10-16T00:13:20;40.69;39.05;45.53;;
66461;Laerm;56838;52.506;4.762;2022-10-16T00:13:31;41.60;39.88;43.55;;
66461;Laerm;56838;52.506;4.762;2022-10-16T00:13:43;41.89;40.50;43.30;;
66461;Laerm;56838;52.506;4.762;2022-10-16T00:13:57;41.17;38.76;43.81;;
66461;Laerm;56838;52.506;4.762;2022-10-16T00:14:09;39.49;37.85;41.30;;
66461;Laerm;56838;52.506;4.762;2022-10-16T00:14:21;40.96;38.26;43.21;;
66461;Laerm;56838;52.506;4.762;2022-10-16T00:14:31;42.03;40.53;43.29;;
66461;Laerm;56838;52.506;4.762;2022-10-16T00:14:41;41.82;40.45;43.58;;
66461;Laerm;56838;52.506;4.762;2022-10-16T00:14:54;40.79;38.91;42.22;;
66461;Laerm;56838;52.506;4.762;2022-10-16T00:15:04;40.19;38.79;41.82;;
66461;Laerm;56838;52.506;4.762;2022-10-16T00:15:16;41.48;39.41;46.11;;
66461;Laerm;56838;52.506;4.762;2022-10-16T00:15:26;41.27;39.92;42.79;;
66461;Laerm;56838;52.506;4.762;2022-10-16T00:15:36;40.84;39.58;42.41;;
66461;Laerm;56838;52.506;4.762;2022-10-16T00:15:47;41.24;38.98;43.32;;
66461;Laerm;56838;52.506;4.762;2022-10-16T00:15:58;41.21;39.35;45.60;;
66461;Laerm;56838;52.506;4.762;2022-10-16T00:16:08;40.74;38.85;43.00;;
66461;Laerm;56838;52.506;4.762;2022-10-16T00:16:20;41.55;40.04;43.78;;
66461;Laerm;56838;52.506;4.762;2022-10-16T00:16:31;41.02;39.44;43.46;;
66461;Laerm;56838;52.506;4.762;2022-10-16T00:16:41;40.93;39.63;42.60;;
66461;Laerm;56838;52.506;4.762;2022-10-16T00:16:51;41.00;39.31;43.66;;
66461;Laerm;56838;52.506;4.762;2022-10-16T00:17:02;41.97;40.40;43.56;;
66461;Laerm;56838;52.506;4.762;2022-10-16T00:17:13;42.22;40.78;44.17;;
66461;Laerm;56838;52.506;4.762;2022-10-16T00:17:23;42.51;41.08;43.88;;
66461;Laerm;56838;52.506;4.762;2022-10-16T00:17:33;41.69;40.57;43.13;;
66461;Laerm;56838;52.506;4.762;2022-10-16T00:17:44;41.05;39.62;42.83;;
66461;Laerm;56838;52.506;4.762;2022-10-16T00:17:54;41.38;39.98;46.90;;
66461;Laerm;56838;52.506;4.762;2022-10-16T00:18:05;41.62;39.69;43.42;;
66461;Laerm;56838;52.506;4.762;2022-10-16T00:18:15;40.99;39.01;43.28;;
66461;Laerm;56838;52.506;4.762;2022-10-16T00:18:26;41.09;39.23;42.55;;
66461;Laerm;56838;52.506;4.762;2022-10-16T00:18:37;41.60;39.93;43.02;;
66461;Laerm;56838;52.506;4.762;2022-10-16T00:18:49;40.95;39.62;43.48;;
66461;Laerm;56838;52.506;4.762;2022-10-16T00:18:59;40.58;39.14;42.69;;
66461;Laerm;56838;52.506;4.762;2022-10-16T00:19:10;40.73;37.83;47.72;;
66461;Laerm;56838;52.506;4.762;2022-10-16T00:19:22;40.64;38.95;42.14;;
66461;Laerm;56838;52.506;4.762;2022-10-16T00:19:33;41.75;40.56;43.05;;
66461;Laerm;56838;52.506;4.762;2022-10-16T00:19:43;42.07;40.50;43.49;;
66461;Laerm;56838;52.506;4.762;2022-10-16T00:19:53;41.46;40.18;43.02;;
66461;Laerm;56838;52.506;4.762;2022-10-16T00:20:04;41.60;39.56;43.14;;
66461;Laerm;56838;52.506;4.762;2022-10-16T00:20:14;41.59;40.10;43.29;;
66461;Laerm;56838;52.506;4.762;2022-10-16T00:20:25;40.67;39.41;42.84;;
66461;Laerm;56838;52.506;4.762;2022-10-16T00:20:35;40.49;39.26;42.57;;
66461;Laerm;56838;52.506;4.762;2022-10-16T00:20:46;40.36;39.29;42.01;;
66461;Laerm;56838;52.506;4.762;2022-10-16T00:21:04;39.67;38.29;40.78;;
66461;Laerm;56838;52.506;4.762;2022-10-16T00:21:16;39.37;38.22;40.72;;
66461;Laerm;56838;52.506;4.762;2022-10-16T00:21:28;39.17;37.45;40.56;;
66461;Laerm;56838;52.506;4.762;2022-10-16T00:21:39;39.81;38.13;42.47;;
66461;Laerm;56838;52.506;4.762;2022-10-16T00:21:50;41.00;39.72;43.37;;
66461;Laerm;56838;52.506;4.762;2022-10-16T00:22:00;40.72;39.07;41.92;;
66461;Laerm;56838;52.506;4.762;2022-10-16T00:22:11;41.11;39.70;42.82;;
66461;Laerm;56838;52.506;4.762;2022-10-16T00:22:21;41.44;39.78;42.76;;
66461;Laerm;56838;52.506;4.762;2022-10-16T00:22:32;41.02;39.52;42.26;;
66461;Laerm;56838;52.506;4.762;2022-10-16T00:22:43;40.89;39.36;41.89;;
66461;Laerm;56838;52.506;4.762;2022-10-16T00:22:53;41.41;39.90;43.29;;
66461;Laerm;56838;52.506;4.762;2022-10-16T00:23:04;40.99;39.52;42.86;;
66461;Laerm;56838;52.506;4.762;2022-10-16T00:23:15;40.39;38.98;41.86;;
66461;Laerm;56838;52.506;4.762;2022-10-16T00:23:25;40.71;39.36;42.14;;
66461;Laerm;56838;52.506;4.762;2022-10-16T00:23:36;40.73;39.37;41.97;;
66461;Laerm;56838;52.506;4.762;2022-10-16T00:23:46;40.22;38.89;41.41;;
66461;Laerm;56838;52.506;4.762;2022-10-16T00:24:04;41.59;39.88;43.38;;
66461;Laerm;56838;52.506;4.762;2022-10-16T00:24:14;42.11;40.85;43.68;;
66461;Laerm;56838;52.506;4.762;2022-10-16T00:24:25;41.54;39.71;43.63;;
66461;Laerm;56838;52.506;4.762;2022-10-16T00:24:36;42.48;39.47;47.48;;
66461;Laerm;56838;52.506;4.762;2022-10-16T00:24:46;42.02;40.32;44.51;;
66461;Laerm;56838;52.506;4.762;2022-10-16T00:24:56;41.40;40.14;43.66;;
66461;Laerm;56838;52.506;4.762;2022-10-16T00:25:07;40.90;38.98;42.71;;
66461;Laerm;56838;52.506;4.762;2022-10-16T00:25:17;40.24;38.49;42.15;;
66461;Laerm;56838;52.506;4.762;2022-10-16T00:25:28;41.26;39.89;42.48;;
66461;Laerm;56838;52.506;4.762;2022-10-16T00:25:38;40.26;39.09;41.67;;
66461;Laerm;56838;52.506;4.762;2022-10-16T00:25:55;40.20;39.06;41.36;;
66461;Laerm;56838;52.506;4.762;2022-10-16T00:26:07;40.89;39.10;42.53;;
66461;Laerm;56838;52.506;4.762;2022-10-16T00:26:18;41.02;39.67;42.25;;
66461;Laerm;56838;52.506;4.762;2022-10-16T00:26:29;40.90;39.16;42.31;;
66461;Laerm;56838;52.506;4.762;2022-10-16T00:26:41;40.74;38.85;43.93;;
66461;Laerm;56838;52.506;4.762;2022-10-16T00:26:51;41.52;40.08;42.85;;
66461;Laerm;56838;52.506;4.762;2022-10-16T00:27:01;41.53;40.15;43.21;;
66461;Laerm;56838;52.506;4.762;2022-10-16T00:27:12;42.59;40.76;44.05;;
66461;Laerm;56838;52.506;4.762;2022-10-16T00:27:22;43.20;41.89;44.88;;
66461;Laerm;56838;52.506;4.762;2022-10-16T00:27:33;41.62;39.50;44.66;;
66461;Laerm;56838;52.506;4.762;2022-10-16T00:27:43;41.49;39.68;45.96;;
66461;Laerm;56838;52.506;4.762;2022-10-16T00:27:54;41.41;39.84;43.50;;
66461;Laerm;56838;52.506;4.762;2022-10-16T00:28:04;42.54;40.81;44.06;;
66461;Laerm;56838;52.506;4.762;2022-10-16T00:28:14;41.12;39.12;43.28;;
66461;Laerm;56838;52.506;4.762;2022-10-16T00:28:25;40.78;39.01;42.76;;
66461;Laerm;56838;52.506;4.762;2022-10-16T00:28:35;43.12;40.64;46.24;;
66461;Laerm;56838;52.506;4.762;2022-10-16T00:28:46;46.69;43.54;50.05;;
66461;Laerm;56838;52.506;4.762;2022-10-16T00:28:57;49.79;43.72;57.56;;
66461;Laerm;56838;52.506;4.762;2022-10-16T00:29:07;56.17;46.88;64.22;;
66461;Laerm;56838;52.506;4.762;2022-10-16T00:29:18;46.24;40.85;53.18;;
66461;Laerm;56838;52.506;4.762;2022-10-16T00:29:28;44.29;41.44;48.37;;
66461;Laerm;56838;52.506;4.762;2022-10-16T00:29:38;44.57;41.39;49.26;;
66461;Laerm;56838;52.506;4.762;2022-10-16T00:29:49;41.67;39.32;43.79;;
66461;Laerm;56838;52.506;4.762;2022-10-16T00:30:01;40.45;38.84;42.06;;
66461;Laerm;56838;52.506;4.762;2022-10-16T00:30:11;42.33;39.86;43.88;;
66461;Laerm;56838;52.506;4.762;2022-10-16T00:30:22;41.82;39.65;43.20;;
66461;Laerm;56838;52.506;4.762;2022-10-16T00:30:33;42.28;40.75;43.68;;
66461;Laerm;56838;52.506;4.762;2022-10-16T00:30:44;42.68;40.23;45.12;;
66461;Laerm;56838;52.506;4.762;2022-10-16T00:30:55;42.54;40.49;45.36;;
66461;Laerm;56838;52.506;4.762;2022-10-16T00:31:06;41.49;39.98;43.18;;
66461;Laerm;56838;52.506;4.762;2022-10-16T00:31:17;40.10;38.68;42.52;;
66461;Laerm;56838;52.506;4.762;2022-10-16T00:31:28;40.22;38.95;41.56;;
66461;Laerm;56838;52.506;4.762;2022-10-16T00:31:39;40.50;38.89;41.91;;
66461;Laerm;56838;52.506;4.762;2022-10-16T00:31:50;42.54;39.35;49.72;;
66461;Laerm;56838;52.506;4.762;2022-10-16T00:32:00;40.51;38.57;46.89;;
66461;Laerm;56838;52.506;4.762;2022-10-16T00:32:10;41.56;38.93;50.93;;
66461;Laerm;56838;52.506;4.762;2022-10-16T00:32:21;41.15;39.68;43.14;;
66461;Laerm;56838;52.506;4.762;2022-10-16T00:32:31;41.22;39.85;42.72;;
66461;Laerm;56838;52.506;4.762;2022-10-16T00:32:42;40.66;38.90;41.90;;
66461;Laerm;56838;52.506;4.762;2022-10-16T00:32:52;41.15;39.00;49.19;;
66461;Laerm;56838;52.506;4.762;2022-10-16T00:33:02;41.77;40.06;45.63;;
66461;Laerm;56838;52.506;4.762;2022-10-16T00:33:13;45.45;42.34;53.80;;
66461;Laerm;56838;52.506;4.762;2022-10-16T00:33:24;49.10;43.05;56.77;;
66461;Laerm;56838;52.506;4.762;2022-10-16T00:33:34;48.96;44.00;53.01;;
66461;Laerm;56838;52.506;4.762;2022-10-16T00:33:44;53.91;44.55;62.88;;
66461;Laerm;56838;52.506;4.762;2022-10-16T00:33:55;53.86;44.56;61.59;;
66461;Laerm;56838;52.506;4.762;2022-10-16T00:34:05;48.46;43.13;54.23;;
66461;Laerm;56838;52.506;4.762;2022-10-16T00:34:16;45.89;42.93;50.12;;
66461;Laerm;56838;52.506;4.762;2022-10-16T00:34:26;44.16;40.93;47.18;;
66461;Laerm;56838;52.506;4.762;2022-10-16T00:34:36;42.88;41.22;44.68;;
66461;Laerm;56838;52.506;4.762;2022-10-16T00:34:47;42.22;40.58;44.03;;
66461;Laerm;56838;52.506;4.762;2022-10-16T00:34:57;41.19;38.96;49.50;;
66461;Laerm;56838;52.506;4.762;2022-10-16T00:35:07;41.51;40.36;43.01;;
66461;Laerm;56838;52.506;4.762;2022-10-16T00:35:18;40.39;38.92;42.05;;
66461;Laerm;56838;52.506;4.762;2022-10-16T00:35:28;40.02;38.78;41.55;;
66461;Laerm;56838;52.506;4.762;2022-10-16T00:35:39;39.55;38.02;43.11;;
66461;Laerm;56838;52.506;4.762;2022-10-16T00:35:49;39.52;38.28;40.83;;
66461;Laerm;56838;52.506;4.762;2022-10-16T00:36:00;40.19;38.42;41.60;;
66461;Laerm;56838;52.506;4.762;2022-10-16T00:36:13;39.66;38.16;41.19;;
66461;Laerm;56838;52.506;4.762;2022-10-16T00:36:25;38.63;36.62;43.17;;
66461;Laerm;56838;52.506;4.762;2022-10-16T00:36:35;38.81;37.06;41.69;;
66461;Laerm;56838;52.506;4.762;2022-10-16T00:36:46;39.98;38.30;41.38;;
66461;Laerm;56838;52.506;4.762;2022-10-16T00:36:57;39.66;38.00;42.39;;
66461;Laerm;56838;52.506;4.762;2022-10-16T00:37:07;39.41;38.24;40.78;;
66461;Laerm;56838;52.506;4.762;2022-10-16T00:37:17;39.99;38.71;41.72;;
66461;Laerm;56838;52.506;4.762;2022-10-16T00:37:28;39.31;37.85;41.43;;
66461;Laerm;56838;52.506;4.762;2022-10-16T00:37:38;39.56;37.94;41.05;;
66461;Laerm;56838;52.506;4.762;2022-10-16T00:37:49;39.80;38.21;45.47;;
66461;Laerm;56838;52.506;4.762;2022-10-16T00:38:00;39.94;38.39;42.02;;
66461;Laerm;56838;52.506;4.762;2022-10-16T00:38:10;39.58;38.10;41.71;;
66461;Laerm;56838;52.506;4.762;2022-10-16T00:38:21;40.50;38.56;43.65;;
66461;Laerm;56838;52.506;4.762;2022-10-16T00:38:31;40.85;39.29;43.38;;
66461;Laerm;56838;52.506;4.762;2022-10-16T00:38:42;39.73;38.52;41.14;;
66461;Laerm;56838;52.506;4.762;2022-10-16T00:38:53;40.48;39.13;41.79;;
66461;Laerm;56838;52.506;4.762;2022-10-16T00:39:04;42.07;39.72;45.27;;
66461;Laerm;56838;52.506;4.762;2022-10-16T00:39:15;42.46;40.80;45.03;;
66461;Laerm;56838;52.506;4.762;2022-10-16T00:39:25;42.21;39.80;48.16;;
66461;Laerm;56838;52.506;4.762;2022-10-16T00:39:36;44.10;40.50;50.35;;
66461;Laerm;56838;52.506;4.762;2022-10-16T00:39:46;41.63;39.60;43.94;;
66461;Laerm;56838;52.506;4.762;2022-10-16T00:39:57;42.40;40.23;44.44;;
66461;Laerm;56838;52.506;4.762;2022-10-16T00:40:08;41.39;39.22;43.24;;
66461;Laerm;56838;52.506;4.762;2022-10-16T00:40:18;41.12;39.60;42.68;;
66461;Laerm;56838;52.506;4.762;2022-10-16T00:40:28;41.39;39.81;42.48;;
66461;Laerm;56838;52.506;4.762;2022-10-16T00:40:39;40.94;39.21;42.71;;
66461;Laerm;56838;52.506;4.762;2022-10-16T00:40:50;39.84;38.42;42.42;;
66461;Laerm;56838;52.506;4.762;2022-10-16T00:41:00;39.82;38.22;41.86;;
66461;Laerm;56838;52.506;4.762;2022-10-16T00:41:11;40.20;38.95;41.51;;
66461;Laerm;56838;52.506;4.762;2022-10-16T00:41:23;39.75;38.06;41.09;;
66461;Laerm;56838;52.506;4.762;2022-10-16T00:41:34;40.87;39.18;44.58;;
66461;Laerm;56838;52.506;4.762;2022-10-16T00:41:44;45.94;39.26;57.35;;
66461;Laerm;56838;52.506;4.762;2022-10-16T00:41:55;40.14;37.99;49.04;;
66461;Laerm;56838;52.506;4.762;2022-10-16T00:42:05;40.33;38.31;42.91;;
66461;Laerm;56838;52.506;4.762;2022-10-16T00:42:16;39.94;38.50;41.43;;
66461;Laerm;56838;52.506;4.762;2022-10-16T00:42:27;40.54;38.74;43.04;;
66461;Laerm;56838;52.506;4.762;2022-10-16T00:42:37;40.23;38.54;42.50;;
66461;Laerm;56838;52.506;4.762;2022-10-16T00:42:47;40.94;39.05;42.70;;
66461;Laerm;56838;52.506;4.762;2022-10-16T00:42:58;40.48;38.57;43.77;;
66461;Laerm;56838;52.506;4.762;2022-10-16T00:43:32;39.96;38.71;41.08;;
66461;Laerm;56838;52.506;4.762;2022-10-16T00:43:45;40.91;39.02;43.41;;
66461;Laerm;56838;52.506;4.762;2022-10-16T00:43:56;41.87;39.62;44.43;;
66461;Laerm;56838;52.506;4.762;2022-10-16T00:44:55;41.36;38.90;45.07;;
66461;Laerm;56838;52.506;4.762;2022-10-16T00:45:08;41.40;39.77;43.66;;
66461;Laerm;56838;52.506;4.762;2022-10-16T00:45:20;42.47;40.30;44.78;;
66461;Laerm;56838;52.506;4.762;2022-10-16T00:45:30;43.09;41.36;44.66;;
66461;Laerm;56838;52.506;4.762;2022-10-16T00:45:41;41.66;40.58;42.51;;
66461;Laerm;56838;52.506;4.762;2022-10-16T00:45:51;42.90;40.82;45.50;;
66461;Laerm;56838;52.506;4.762;2022-10-16T00:46:02;42.49;40.92;44.09;;
66461;Laerm;56838;52.506;4.762;2022-10-16T00:46:40;40.83;39.08;42.18;;
66461;Laerm;56838;52.506;4.762;2022-10-16T00:46:51;41.42;39.86;43.22;;
66461;Laerm;56838;52.506;4.762;2022-10-16T00:47:02;42.07;40.36;43.47;;
66461;Laerm;56838;52.506;4.762;2022-10-16T00:47:18;40.96;39.32;42.96;;
66461;Laerm;56838;52.506;4.762;2022-10-16T00:47:31;40.66;39.09;42.53;;
66461;Laerm;56838;52.506;4.762;2022-10-16T00:47:43;40.74;38.70;42.85;;
66461;Laerm;56838;52.506;4.762;2022-10-16T00:47:59;41.29;39.80;42.81;;
66461;Laerm;56838;52.506;4.762;2022-10-16T00:48:10;41.56;40.08;42.77;;
66461;Laerm;56838;52.506;4.762;2022-10-16T00:48:23;41.74;40.27;43.40;;
66461;Laerm;56838;52.506;4.762;2022-10-16T00:48:34;41.01;39.74;44.60;;
66461;Laerm;56838;52.506;4.762;2022-10-16T00:48:46;41.99;40.49;46.15;;
66461;Laerm;56838;52.506;4.762;2022-10-16T00:49:05;40.68;39.29;42.66;;
66461;Laerm;56838;52.506;4.762;2022-10-16T00:49:17;40.30;38.13;42.22;;
66461;Laerm;56838;52.506;4.762;2022-10-16T00:49:28;40.98;39.42;42.74;;
66461;Laerm;56838;52.506;4.762;2022-10-16T00:49:39;41.18;39.85;42.78;;
66461;Laerm;56838;52.506;4.762;2022-10-16T00:49:50;41.33;39.92;42.58;;
66461;Laerm;56838;52.506;4.762;2022-10-16T00:50:12;40.42;38.76;42.28;;
66461;Laerm;56838;52.506;4.762;2022-10-16T00:50:27;40.50;38.90;42.10;;
66461;Laerm;56838;52.506;4.762;2022-10-16T00:50:38;41.98;40.18;43.23;;
66461;Laerm;56838;52.506;4.762;2022-10-16T00:50:53;41.52;40.01;43.10;;
66461;Laerm;56838;52.506;4.762;2022-10-16T00:51:05;41.81;40.23;43.15;;
66461;Laerm;56838;52.506;4.762;2022-10-16T00:51:17;40.45;39.06;42.11;;
66461;Laerm;56838;52.506;4.762;2022-10-16T00:51:47;41.47;39.82;42.89;;
66461;Laerm;56838;52.506;4.762;2022-10-16T00:51:58;41.05;38.87;42.70;;
66461;Laerm;56838;52.506;4.762;2022-10-16T00:52:08;40.14;38.78;41.40;;
66461;Laerm;56838;52.506;4.762;2022-10-16T00:52:20;39.80;38.60;41.19;;
66461;Laerm;56838;52.506;4.762;2022-10-16T00:52:31;39.59;38.16;41.24;;
66461;Laerm;56838;52.506;4.762;2022-10-16T00:52:43;39.93;38.65;41.30;;
66461;Laerm;56838;52.506;4.762;2022-10-16T00:52:54;39.68;38.29;41.71;;
66461;Laerm;56838;52.506;4.762;2022-10-16T00:53:05;40.06;37.97;41.62;;
66461;Laerm;56838;52.506;4.762;2022-10-16T00:53:16;40.64;39.01;42.08;;
66461;Laerm;56838;52.506;4.762;2022-10-16T00:53:27;41.13;39.34;47.30;;
66461;Laerm;56838;52.506;4.762;2022-10-16T00:53:38;41.43;40.02;42.60;;
66461;Laerm;56838;52.506;4.762;2022-10-16T00:53:48;41.73;40.03;46.25;;
66461;Laerm;56838;52.506;4.762;2022-10-16T00:53:59;40.95;39.74;42.33;;
66461;Laerm;56838;52.506;4.762;2022-10-16T00:54:29;41.41;39.38;43.03;;
66461;Laerm;56838;52.506;4.762;2022-10-16T00:54:40;41.45;39.19;43.70;;
66461;Laerm;56838;52.506;4.762;2022-10-16T00:54:51;40.99;38.99;45.34;;
66461;Laerm;56838;52.506;4.762;2022-10-16T00:55:03;40.56;38.92;41.88;;
66461;Laerm;56838;52.506;4.762;2022-10-16T00:55:14;41.85;40.07;44.08;;
66461;Laerm;56838;52.506;4.762;2022-10-16T00:55:25;42.67;41.16;44.26;;
66461;Laerm;56838;52.506;4.762;2022-10-16T00:55:36;42.98;40.64;45.00;;
66461;Laerm;56838;52.506;4.762;2022-10-16T00:55:47;41.29;39.76;42.57;;
66461;Laerm;56838;52.506;4.762;2022-10-16T00:55:57;41.29;39.81;42.62;;
66461;Laerm;56838;52.506;4.762;2022-10-16T00:56:07;47.74;39.06;67.48;;
66461;Laerm;56838;52.506;4.762;2022-10-16T00:56:18;42.55;40.76;49.66;;
66461;Laerm;56838;52.506;4.762;2022-10-16T00:56:29;41.38;39.86;50.33;;
66461;Laerm;56838;52.506;4.762;2022-10-16T00:56:39;41.77;40.45;42.68;;
66461;Laerm;56838;52.506;4.762;2022-10-16T00:56:50;41.39;39.95;43.32;;
66461;Laerm;56838;52.506;4.762;2022-10-16T00:57:03;42.88;41.37;45.07;;
66461;Laerm;56838;52.506;4.762;2022-10-16T00:57:14;41.83;40.05;44.18;;
66461;Laerm;56838;52.506;4.762;2022-10-16T00:57:24;41.57;39.92;43.69;;
66461;Laerm;56838;52.506;4.762;2022-10-16T00:57:36;41.17;39.78;42.88;;
66461;Laerm;56838;52.506;4.762;2022-10-16T00:57:46;41.39;40.04;42.58;;
66461;Laerm;56838;52.506;4.762;2022-10-16T00:57:58;40.67;39.51;42.19;;
66461;Laerm;56838;52.506;4.762;2022-10-16T00:58:08;42.44;39.85;44.06;;
66461;Laerm;56838;52.506;4.762;2022-10-16T00:58:20;42.96;41.33;44.36;;
66461;Laerm;56838;52.506;4.762;2022-10-16T00:58:30;43.82;41.08;47.17;;
66461;Laerm;56838;52.506;4.762;2022-10-16T00:58:41;41.65;39.76;44.35;;
66461;Laerm;56838;52.506;4.762;2022-10-16T00:58:52;40.39;39.23;41.42;;
66461;Laerm;56838;52.506;4.762;2022-10-16T00:59:15;40.04;38.57;41.52;;
66461;Laerm;56838;52.506;4.762;2022-10-16T00:59:27;40.36;39.10;43.30;;
66461;Laerm;56838;52.506;4.762;2022-10-16T00:59:39;39.28;37.88;40.75;;
66461;Laerm;56838;52.506;4.762;2022-10-16T00:59:49;40.20;38.46;41.62;;
66461;Laerm;56838;52.506;4.762;2022-10-16T01:00:01;40.35;38.75;42.00;;
66461;Laerm;56838;52.506;4.762;2022-10-16T01:00:12;40.57;38.70;43.88;;
66461;Laerm;56838;52.506;4.762;2022-10-16T01:00:25;39.85;38.54;41.41;;
66461;Laerm;56838;52.506;4.762;2022-10-16T01:00:36;40.38;38.31;42.83;;
66461;Laerm;56838;52.506;4.762;2022-10-16T01:00:46;41.24;39.58;43.29;;
66461;Laerm;56838;52.506;4.762;2022-10-16T01:00:57;41.31;39.63;46.27;;
66461;Laerm;56838;52.506;4.762;2022-10-16T01:01:07;40.75;39.14;42.53;;
66461;Laerm;56838;52.506;4.762;2022-10-16T01:01:17;40.38;39.26;41.78;;
66461;Laerm;56838;52.506;4.762;2022-10-16T01:01:28;40.48;39.42;41.60;;
66461;Laerm;56838;52.506;4.762;2022-10-16T01:01:38;40.64;39.44;41.76;;
66461;Laerm;56838;52.506;4.762;2022-10-16T01:01:49;40.84;39.46;42.31;;
66461;Laerm;56838;52.506;4.762;2022-10-16T01:01:59;40.38;38.90;41.90;;
66461;Laerm;56838;52.506;4.762;2022-10-16T01:02:12;39.21;37.84;40.38;;
66461;Laerm;56838;52.506;4.762;2022-10-16T01:02:23;39.65;38.04;41.10;;
66461;Laerm;56838;52.506;4.762;2022-10-16T01:02:33;39.90;38.88;44.73;;
66461;Laerm;56838;52.506;4.762;2022-10-16T01:02:43;39.57;38.58;41.00;;
66461;Laerm;56838;52.506;4.762;2022-10-16T01:02:55;40.70;39.18;42.45;;
66461;Laerm;56838;52.506;4.762;2022-10-16T01:03:52;44.63;39.24;69.05;;
66461;Laerm;56838;52.506;4.762;2022-10-16T01:04:03;40.82;39.36;43.51;;
66461;Laerm;56838;52.506;4.762;2022-10-16T01:04:13;40.02;38.08;41.31;;
66461;Laerm;56838;52.506;4.762;2022-10-16T01:04:24;40.75;38.68;46.22;;
66461;Laerm;56838;52.506;4.762;2022-10-16T01:04:43;40.47;39.14;41.96;;
66461;Laerm;56838;52.506;4.762;2022-10-16T01:04:54;40.19;38.20;43.86;;
66461;Laerm;56838;52.506;4.762;2022-10-16T01:05:04;40.92;39.42;44.60;;